createdAt,value
2017-03-23T00:07:54.614Z,6.43
2017-03-23T00:17:54.049Z,6.47
2017-03-23T00:27:54.007Z,6.38
2017-03-23T00:37:54.076Z,6.1
2017-03-23T00:47:55.019Z,5.82
2017-03-23T00:57:53.989Z,5.96
2017-03-23T01:07:54.044Z,5.89
2017-03-23T01:17:54.152Z,6.03
2017-03-23T01:27:54.065Z,6.14
2017-03-23T01:37:53.936Z,6.4
2017-03-23T01:47:54.088Z,6.5
2017-03-23T01:57:54.040Z,6.69
2017-03-23T02:07:53.965Z,6.69
2017-03-23T02:17:53.976Z,6.89
2017-03-23T02:27:53.944Z,6.95
2017-03-23T02:37:54.003Z,7.01
2017-03-23T02:47:53.973Z,6.95
2017-03-23T02:57:53.941Z,6.76
2017-03-23T03:07:54.013Z,6.68
2017-03-23T03:17:53.988Z,6.76
2017-03-23T03:27:53.970Z,6.83
2017-03-23T03:37:53.993Z,6.8
2017-03-23T03:47:53.945Z,6.95
2017-03-23T03:57:53.890Z,7.07
2017-03-23T04:07:53.958Z,7.12
2017-03-23T04:17:53.924Z,7.17
2017-03-23T04:27:54.914Z,7.34
2017-03-23T04:37:53.966Z,7.35
2017-03-23T04:47:53.929Z,7.34
2017-03-23T04:57:53.978Z,7.42
2017-03-23T05:07:53.938Z,7.44
2017-03-23T05:17:53.940Z,7.37
2017-03-23T05:27:53.953Z,7.22
2017-03-23T05:37:53.977Z,7.19
2017-03-23T05:47:53.978Z,7.2
2017-03-23T05:57:53.938Z,7.5
2017-03-23T06:07:53.963Z,7.5
2017-03-23T06:17:53.935Z,7.71
2017-03-23T06:27:53.885Z,8.14
2017-03-23T06:37:53.956Z,8.3
2017-03-23T06:47:54.128Z,8.63
2017-03-23T06:57:53.890Z,8.87
2017-03-23T07:07:53.945Z,9.48
2017-03-23T07:17:53.872Z,9.31
2017-03-23T07:27:53.979Z,9.46
2017-03-23T07:37:53.926Z,9.73
2017-03-23T07:47:54.001Z,9.85
2017-03-23T07:57:53.874Z,9.75
2017-03-23T08:07:53.917Z,10.03
2017-03-23T08:17:53.859Z,10.04
2017-03-23T08:27:53.873Z,10.18
2017-03-23T08:37:53.850Z,10.25
2017-03-23T08:47:53.859Z,10.59
2017-03-23T08:57:53.850Z,10.86
2017-03-23T09:07:53.869Z,11.25
2017-03-23T09:17:54.010Z,11.47
2017-03-23T09:27:53.870Z,12.06
2017-03-23T09:37:53.861Z,12.21
2017-03-23T09:47:53.853Z,12.23
2017-03-23T09:57:53.862Z,12.92
2017-03-23T10:07:53.907Z,13.7
2017-03-23T10:17:53.926Z,13.96
2017-03-23T10:27:53.869Z,13.46
2017-03-23T10:37:54.133Z,13.43
2017-03-23T10:47:54.099Z,12.77
2017-03-23T10:57:53.878Z,12.97
2017-03-23T11:07:53.901Z,14.37
2017-03-23T11:17:53.945Z,15.06
2017-03-23T11:27:53.949Z,15.76
2017-03-23T11:37:53.856Z,16.31
2017-03-23T11:47:53.910Z,15.36
2017-03-23T11:57:53.942Z,15.59
2017-03-23T12:07:54.416Z,15.41
2017-03-23T12:17:53.952Z,15.45
2017-03-23T12:27:54.013Z,15.45
2017-03-23T12:37:53.984Z,15.19
2017-03-23T12:47:54.011Z,15.93
2017-03-23T12:57:54.012Z,14.91
2017-03-23T13:07:53.906Z,13.58
2017-03-23T13:17:53.884Z,14.28
2017-03-23T13:27:53.873Z,14.43
2017-03-23T13:37:53.886Z,14.06
2017-03-23T13:47:53.875Z,14.16
2017-03-23T13:57:53.918Z,14.04
2017-03-23T14:07:53.962Z,14.61
2017-03-23T14:17:53.979Z,14.69
2017-03-23T14:36:52.335Z,14.07
2017-03-23T14:46:52.409Z,14.32
2017-03-23T14:56:52.399Z,14.09
2017-03-23T15:06:52.420Z,14.24
2017-03-23T15:16:52.416Z,13.96
2017-03-23T15:26:52.547Z,13.27
2017-03-23T15:36:52.416Z,13.51
2017-03-23T15:46:52.388Z,13.33
2017-03-23T15:56:52.420Z,12.95
2017-03-23T16:06:52.448Z,12.67
2017-03-23T16:16:52.422Z,12.44
2017-03-23T16:26:52.590Z,12.24
2017-03-23T16:36:52.435Z,12.13
2017-03-23T16:46:52.345Z,11.82
2017-03-23T16:56:52.308Z,11.5
2017-03-23T17:06:52.325Z,11.36
2017-03-23T17:16:52.294Z,10.98
2017-03-23T17:26:52.315Z,10.59
2017-03-23T17:36:52.402Z,10.15
2017-03-23T17:46:52.545Z,9.86
2017-03-23T17:56:52.338Z,9.75
2017-03-23T18:06:52.492Z,9.49
2017-03-23T18:16:52.320Z,9.34
2017-03-23T18:26:52.358Z,9.13
2017-03-23T18:36:52.345Z,8.83
2017-03-23T18:46:52.394Z,8.68
2017-03-23T18:56:52.328Z,8.39
2017-03-23T19:06:52.322Z,8.22
2017-03-23T19:16:52.321Z,8.15
2017-03-23T19:26:52.478Z,7.85
2017-03-23T19:36:52.329Z,7.81
2017-03-23T19:46:52.550Z,7.62
2017-03-23T19:56:52.585Z,7.58
2017-03-23T20:06:52.477Z,7.66
2017-03-23T20:16:55.340Z,7.63
2017-03-23T20:26:53.390Z,7.71
2017-03-23T20:36:52.618Z,7.56
2017-03-23T20:46:52.378Z,7.44
2017-03-23T20:56:52.601Z,7.32
2017-03-23T21:06:52.495Z,7.44
2017-03-23T21:16:52.409Z,7.81
2017-03-23T21:26:52.396Z,7.93
2017-03-23T21:36:52.325Z,8.18
2017-03-23T21:46:52.389Z,8.29
2017-03-23T21:56:52.373Z,8.39
2017-03-23T22:06:52.478Z,8.33
2017-03-23T22:16:52.465Z,8.28
2017-03-23T22:26:52.285Z,8.26
2017-03-23T22:37:00.693Z,8.28
2017-03-23T22:46:52.376Z,8.25
2017-03-23T22:56:52.312Z,8.28
2017-03-23T23:06:52.492Z,8.17
2017-03-23T23:16:52.322Z,8.28
2017-03-23T23:26:52.312Z,8.25
2017-03-23T23:36:52.342Z,8.32
2017-03-23T23:46:52.382Z,8.35
2017-03-23T23:56:52.373Z,8.44
